Time;durP1;ratioP1;P1;durP2;ratioP2;P2;SDS_P1;SDS_P2;PMS_P1;PMS_P2;Temp;Humidity;BMP_temperature;BMP_pressure;BME280_temperature;BME280_humidity;BME280_pressure;Samples;Min_cycle;Max_cycle;Signal;HPM_P1;HPM_P2
2022/01/30 00:01:01;;;;;;;21.83;3.42;;;6.20;99.90;;;;;;5047556;28;20049;-75
2022/01/30 00:03:29;;;;;;;15.90;3.47;;;6.20;99.90;;;;;;5047570;28;20052;-75
2022/01/30 00:05:57;;;;;;;25.92;4.18;;;6.10;99.90;;;;;;5048751;28;20049;-74
2022/01/30 00:08:25;;;;;;;21.80;3.63;;;6.10;99.90;;;;;;5021227;28;20058;-75
2022/01/30 00:10:59;;;;;;;24.17;3.75;;;6.00;99.90;;;;;;5027415;28;20533;-74
2022/01/30 00:13:28;;;;;;;21.52;3.53;;;6.00;99.90;;;;;;5029737;28;20184;-74
2022/01/30 00:15:57;;;;;;;24.60;3.17;;;5.90;99.90;;;;;;5028734;28;20056;-74
2022/01/30 00:19:17;;;;;;;29.33;3.60;;;6.00;99.90;;;;;;5031782;28;20052;-74
2022/01/30 00:23:50;;;;;;;24.13;3.70;;;6.10;99.90;;;;;;5037677;28;20095;-76
2022/01/30 00:26:19;;;;;;;23.33;3.50;;;6.10;99.90;;;;;;5045091;28;20056;-75
2022/01/30 00:28:47;;;;;;;22.17;3.40;;;6.00;99.90;;;;;;5061058;28;20041;-75
2022/01/30 00:31:20;;;;;;;25.98;3.50;;;6.00;99.90;;;;;;5044662;28;20052;-75
2022/01/30 00:33:54;;;;;;;22.67;3.55;;;5.90;99.90;;;;;;5046615;28;20413;-73
2022/01/30 00:36:22;;;;;;;19.90;3.28;;;5.90;99.90;;;;;;5046558;28;20052;-74
2022/01/30 00:38:50;;;;;;;22.75;3.42;;;5.80;99.90;;;;;;5028160;28;20045;-74
2022/01/30 00:41:19;;;;;;;25.33;3.80;;;5.70;99.90;;;;;;5045739;28;20051;-75
2022/01/30 00:43:47;;;;;;;20.92;3.35;;;5.60;99.90;;;;;;5047330;28;20515;-75
2022/01/30 00:46:15;;;;;;;21.52;3.45;;;5.50;99.90;;;;;;5046446;28;20057;-75
2022/01/30 00:48:43;;;;;;;21.63;3.33;;;5.40;99.90;;;;;;5043309;28;20080;-75
2022/01/30 00:51:10;;;;;;;26.30;3.40;;;5.40;99.90;;;;;;5045334;28;20049;-74
2022/01/30 00:53:38;;;;;;;27.35;3.88;;;5.30;99.90;;;;;;5044895;28;20064;-74
2022/01/30 00:56:08;;;;;;;24.17;3.67;;;5.10;99.90;;;;;;5046500;28;20520;-75
2022/01/30 00:58:35;;;;;;;24.20;3.83;;;5.10;99.90;;;;;;5045502;28;20053;-74
2022/01/30 01:01:04;;;;;;;29.38;4.10;;;4.90;99.90;;;;;;5047149;28;20048;-75
2022/01/30 01:03:32;;;;;;;23.25;3.88;;;4.90;99.90;;;;;;5025278;28;20481;-75
2022/01/30 01:06:02;;;;;;;26.30;3.90;;;4.80;99.90;;;;;;5045738;28;20053;-74
2022/01/30 01:08:35;;;;;;;26.58;4.25;;;4.80;99.90;;;;;;5044044;28;20044;-74
2022/01/30 01:24:55;;;;;;;30.35;4.95;;;4.30;99.90;;;;;;5046816;28;20507;-75
2022/01/30 01:27:23;;;;;;;29.63;4.78;;;4.30;99.90;;;;;;5046773;28;20060;-75
2022/01/30 01:29:51;;;;;;;25.42;5.53;;;4.30;99.90;;;;;;5047312;28;20049;-75
2022/01/30 01:32:18;;;;;;;29.25;5.55;;;4.20;99.90;;;;;;5046908;28;20056;-76
2022/01/30 01:34:47;;;;;;;32.97;5.40;;;4.20;99.90;;;;;;5062544;28;20052;-75
2022/01/30 01:37:14;;;;;;;30.13;5.10;;;4.20;99.90;;;;;;5046724;28;20699;-75
2022/01/30 01:39:45;;;;;;;32.38;5.35;;;4.20;99.90;;;;;;5030379;28;20053;-75
2022/01/30 01:42:15;;;;;;;30.05;5.00;;;4.10;99.90;;;;;;5028390;28;20568;-75
2022/01/30 01:44:48;;;;;;;31.10;5.28;;;4.10;99.90;;;;;;5045388;28;20508;-76
2022/01/30 01:47:19;;;;;;;28.75;5.00;;;4.10;99.90;;;;;;5030093;28;20045;-76
2022/01/30 01:49:50;;;;;;;31.95;5.35;;;4.10;99.90;;;;;;5050625;28;20049;-76
2022/01/30 01:52:23;;;;;;;26.80;4.65;;;4.10;99.90;;;;;;5047807;28;20059;-76
2022/01/30 01:54:57;;;;;;;32.92;5.05;;;4.00;99.90;;;;;;5046918;28;20057;-75
2022/01/30 01:57:27;;;;;;;28.27;5.00;;;4.00;99.90;;;;;;5047064;28;20477;-76
2022/01/30 02:00:33;;;;;;;36.08;5.50;;;3.90;99.90;;;;;;5045357;28;20033;-77
2022/01/30 02:03:02;;;;;;;30.30;4.47;;;4.00;99.90;;;;;;5044549;28;20055;-76
2022/01/30 02:05:33;;;;;;;32.88;5.03;;;3.80;99.90;;;;;;5030065;28;20054;-76
2022/01/30 02:27:27;;;;;;;24.25;4.45;;;3.60;99.90;;;;;;5029277;28;20374;-75
2022/01/30 02:29:57;;;;;;;34.88;4.90;;;3.50;99.90;;;;;;5045340;28;20060;-76
2022/01/30 02:32:26;;;;;;;30.25;4.90;;;3.50;99.90;;;;;;5047428;28;20049;-75
2022/01/30 02:34:53;;;;;;;35.10;4.90;;;3.50;99.90;;;;;;5045327;28;20481;-75
2022/01/30 02:37:21;;;;;;;32.20;5.10;;;3.50;99.90;;;;;;5029570;28;20048;-75
2022/01/30 02:39:50;;;;;;;34.80;4.53;;;3.50;99.90;;;;;;5028505;28;20489;-76
2022/01/30 02:42:22;;;;;;;27.13;4.38;;;3.40;99.90;;;;;;5039811;28;20045;-75
2022/01/30 02:44:57;;;;;;;27.15;4.88;;;3.40;99.90;;;;;;5011193;28;20051;-77
2022/01/30 02:47:39;;;;;;;28.77;4.47;;;3.40;99.90;;;;;;5044930;28;20040;-76
2022/01/30 02:50:32;;;;;;;27.02;4.28;;;3.30;99.90;;;;;;5045378;28;20397;-76
2022/01/30 02:53:03;;;;;;;28.25;5.00;;;3.20;99.90;;;;;;5029782;28;20044;-76
2022/01/30 02:55:31;;;;;;;32.75;4.30;;;3.30;99.90;;;;;;5045500;28;20057;-76
2022/01/30 02:57:59;;;;;;;29.38;5.50;;;3.10;99.90;;;;;;5045338;28;20387;-77
2022/01/30 03:00:27;;;;;;;27.00;4.95;;;3.00;99.90;;;;;;5045537;28;20057;-76
2022/01/30 03:02:55;;;;;;;21.90;4.95;;;3.00;99.90;;;;;;5046921;28;20049;-77
2022/01/30 03:05:23;;;;;;;31.40;5.57;;;3.00;99.90;;;;;;5045600;28;20065;-76
2022/01/30 03:07:52;;;;;;;36.25;5.22;;;3.10;99.90;;;;;;5046340;28;20087;-76
2022/01/30 03:10:20;;;;;;;29.52;4.85;;;3.00;99.90;;;;;;5045801;28;20064;-76
2022/01/30 03:12:47;;;;;;;;;;;2.90;99.90;;;;;;5046707;28;20056;-76
2022/01/30 03:15:15;;;;;;;30.88;4.72;;;2.90;99.90;;;;;;5042513;28;20297;-76
2022/01/30 03:17:43;;;;;;;28.20;4.60;;;2.90;99.90;;;;;;5042701;28;20045;-76
2022/01/30 03:20:11;;;;;;;30.05;4.60;;;2.80;99.90;;;;;;5025954;28;20076;-76
2022/01/30 03:22:40;;;;;;;;;;;2.80;99.90;;;;;;5035142;28;20045;-77
2022/01/30 03:25:08;;;;;;;22.75;4.22;;;2.70;99.90;;;;;;5045439;28;19932;-76
2022/01/30 03:27:54;;;;;;;30.65;4.35;;;2.70;99.90;;;;;;5031489;28;20497;-75
2022/01/30 03:30:33;;;;;;;31.73;4.63;;;2.60;99.90;;;;;;5029194;28;20060;-75
2022/01/30 03:33:06;;;;;;;34.85;4.78;;;2.60;99.90;;;;;;5062009;28;20064;-75
2022/01/30 03:35:35;;;;;;;35.83;4.72;;;2.50;99.90;;;;;;5062204;28;20167;-75
2022/01/30 03:38:04;;;;;;;34.38;4.40;;;2.50;99.90;;;;;;5028800;28;20049;-75
2022/01/30 03:40:32;;;;;;;30.85;4.65;;;2.50;99.90;;;;;;5045527;28;20052;-75
2022/01/30 03:43:02;;;;;;;25.80;4.60;;;2.40;99.90;;;;;;5061755;28;20049;-76
2022/01/30 03:45:30;;;;;;;29.05;4.38;;;2.50;99.90;;;;;;5028618;28;20052;-76
2022/01/30 03:47:58;;;;;;;33.53;4.57;;;2.30;99.90;;;;;;5045824;28;20087;-76
2022/01/30 03:50:47;;;;;;;23.60;4.40;;;2.30;99.90;;;;;;5027668;28;20041;-75
2022/01/30 03:53:16;;;;;;;33.55;4.88;;;2.40;99.90;;;;;;5044585;28;20049;-76
2022/01/30 03:55:44;;;;;;;;;;;2.20;99.90;;;;;;5044522;28;20048;-75
2022/01/30 03:58:20;;;;;;;36.17;4.38;;;2.20;99.90;;;;;;5044506;28;19925;-75
2022/01/30 04:00:48;;;;;;;28.25;3.97;;;2.20;99.90;;;;;;5044634;28;20057;-75
2022/01/30 04:03:17;;;;;;;23.75;3.85;;;2.20;99.90;;;;;;5044396;28;20049;-75
2022/01/30 04:05:45;;;;;;;28.23;4.10;;;2.10;99.90;;;;;;5035711;28;20058;-74
2022/01/30 04:08:13;;;;;;;36.00;4.57;;;2.10;99.90;;;;;;5032516;28;20453;-75
2022/01/30 04:10:59;;;;;;;24.45;3.65;;;2.10;99.90;;;;;;5050338;28;20064;-75
2022/01/30 04:13:35;;;;;;;32.55;4.38;;;2.10;99.90;;;;;;5064587;28;20379;-74
2022/01/30 04:16:09;;;;;;;30.02;4.68;;;2.10;99.90;;;;;;5048789;28;20504;-75
2022/01/30 04:18:57;;;;;;;34.30;4.75;;;2.10;99.90;;;;;;5037866;28;20064;-74
2022/01/30 04:21:39;;;;;;;39.42;4.90;;;2.10;99.90;;;;;;5048556;28;20052;-74
2022/01/30 04:24:29;;;;;;;28.92;4.88;;;2.20;99.90;;;;;;5046482;28;20072;-77
2022/01/30 04:27:14;;;;;;;35.47;4.82;;;2.10;99.90;;;;;;5034596;28;20045;-75
2022/01/30 04:30:00;;;;;;;31.67;5.10;;;2.10;99.90;;;;;;5048133;28;20489;-76
2022/01/30 04:32:55;;;;;;;33.30;4.90;;;2.10;99.90;;;;;;5047782;28;20068;-75
2022/01/30 04:35:32;;;;;;;28.20;4.35;;;2.10;99.90;;;;;;5049433;28;20056;-75
2022/01/30 04:38:37;;;;;;;26.92;4.43;;;2.20;99.90;;;;;;5040178;28;20049;-76
2022/01/30 04:42:08;;;;;;;35.60;4.47;;;2.20;99.90;;;;;;5048646;28;20053;-75
2022/01/30 04:56:59;;;;;;;31.80;4.38;;;2.20;99.90;;;;;;5048128;28;20045;-75
2022/01/30 05:00:19;;;;;;;31.45;4.40;;;2.20;99.90;;;;;;5015379;28;20489;-75
2022/01/30 05:03:40;;;;;;;29.50;5.03;;;2.20;99.90;;;;;;5048807;28;20064;-75
2022/01/30 05:09:36;;;;;;;29.13;3.83;;;2.10;99.90;;;;;;5018460;28;20061;-75
2022/01/30 05:12:14;;;;;;;29.25;4.10;;;2.10;99.90;;;;;;5032251;28;20420;-75
2022/01/30 05:15:04;;;;;;;28.88;4.32;;;2.20;99.90;;;;;;5029806;28;20409;-76
2022/01/30 05:17:43;;;;;;;33.35;4.85;;;2.20;99.90;;;;;;5046075;28;20057;-75
2022/01/30 05:20:15;;;;;;;24.30;4.13;;;2.20;99.90;;;;;;5030876;28;20413;-76
2022/01/30 05:23:06;;;;;;;26.13;4.47;;;2.10;99.90;;;;;;5047141;28;20056;-75
2022/01/30 05:25:37;;;;;;;27.75;4.00;;;2.10;99.90;;;;;;5045990;28;20541;-76
2022/01/30 05:28:13;;;;;;;28.05;4.22;;;2.00;99.90;;;;;;5047666;28;20070;-76
2022/01/30 05:31:01;;;;;;;26.80;3.83;;;1.90;99.90;;;;;;5063822;28;20042;-76
2022/01/30 05:34:02;;;;;;;38.28;4.47;;;1.80;99.90;;;;;;5043682;28;20056;-75
2022/01/30 05:36:46;;;;;;;27.40;4.35;;;1.70;99.90;;;;;;5015862;28;20057;-76
2022/01/30 05:39:53;;;;;;;19.60;4.03;;;1.70;99.90;;;;;;5048166;28;20436;-75
2022/01/30 05:42:44;;;;;;;25.10;3.80;;;1.60;99.90;;;;;;5028397;28;20064;-75
2022/01/30 05:45:38;;;;;;;26.42;4.03;;;1.50;99.90;;;;;;5045639;28;20068;-75
2022/01/30 05:48:25;;;;;;;26.17;4.20;;;1.50;99.90;;;;;;5047119;28;20045;-76
2022/01/30 05:51:03;;;;;;;30.50;4.05;;;1.30;99.90;;;;;;5046677;28;20047;-76
2022/01/30 05:53:46;;;;;;;31.42;4.90;;;1.30;99.90;;;;;;5046324;28;20393;-76
2022/01/30 05:56:18;;;;;;;24.58;4.18;;;1.20;99.90;;;;;;5045453;28;20056;-77
2022/01/30 05:58:45;;;;;;;20.98;4.10;;;1.20;99.90;;;;;;5045339;28;20063;-76
2022/01/30 06:01:28;;;;;;;33.72;4.38;;;1.20;99.90;;;;;;5044353;28;20622;-76
2022/01/30 06:04:10;;;;;;;31.83;4.25;;;1.10;99.90;;;;;;5042482;28;20490;-76
2022/01/30 06:06:38;;;;;;;28.10;3.83;;;1.10;99.90;;;;;;5025741;28;20061;-76
2022/01/30 06:09:18;;;;;;;;;;;1.00;99.90;;;;;;5025810;28;20049;-77
2022/01/30 06:11:53;;;;;;;30.10;3.80;;;1.00;99.90;;;;;;5019058;28;19924;-76
2022/01/30 06:14:24;;;;;;;31.77;4.28;;;0.90;99.90;;;;;;5045712;28;20473;-75
2022/01/30 06:17:15;;;;;;;30.90;4.30;;;0.90;99.90;;;;;;5045662;28;20052;-76
2022/01/30 06:19:58;;;;;;;30.05;4.10;;;0.90;99.90;;;;;;5045946;28;20151;-76
2022/01/30 06:22:57;;;;;;;30.30;3.85;;;0.80;99.90;;;;;;5033883;28;20529;-76
2022/01/30 06:25:44;;;;;;;31.83;4.10;;;0.80;99.90;;;;;;5045778;28;20049;-76
2022/01/30 06:28:30;;;;;;;27.90;3.95;;;0.70;99.90;;;;;;5046491;28;20048;-76
2022/01/30 06:31:12;;;;;;;28.38;4.32;;;0.70;99.90;;;;;;5045573;28;20056;-76
2022/01/30 06:33:43;;;;;;;34.42;4.47;;;0.70;99.90;;;;;;5046729;28;20051;-76
2022/01/30 06:36:31;;;;;;;40.33;4.57;;;0.70;99.90;;;;;;5032981;28;20045;-76
2022/01/30 06:39:08;;;;;;;29.75;4.25;;;0.70;99.90;;;;;;5015281;28;20048;-76
2022/01/30 06:42:14;;;;;;;35.35;4.25;;;0.80;99.90;;;;;;5037269;28;20049;-77
2022/01/30 06:45:01;;;;;;;35.35;4.20;;;0.70;99.90;;;;;;5031323;28;20522;-76
2022/01/30 06:47:47;;;;;;;35.38;4.72;;;0.80;99.90;;;;;;5043846;28;20630;-76
2022/01/30 06:50:34;;;;;;;33.03;4.63;;;0.80;99.90;;;;;;5039372;28;20040;-77
2022/01/30 06:53:20;;;;;;;27.88;4.07;;;0.70;99.90;;;;;;5039356;28;20258;-76
2022/01/30 06:56:07;;;;;;;27.60;4.45;;;0.80;99.90;;;;;;5035916;28;20051;-76
2022/01/30 06:58:56;;;;;;;28.48;4.45;;;0.80;99.90;;;;;;5042062;28;20354;-75
2022/01/30 07:01:42;;;;;;;34.78;4.30;;;0.80;99.90;;;;;;5044600;28;20048;-76
2022/01/30 07:04:29;;;;;;;35.97;4.75;;;0.80;99.90;;;;;;5045075;28;20072;-75
2022/01/30 07:07:14;;;;;;;32.78;4.22;;;0.80;99.90;;;;;;5044272;28;20390;-76
2022/01/30 07:09:42;;;;;;;38.70;5.07;;;0.90;99.90;;;;;;5046368;28;20049;-76
2022/01/30 07:12:10;;;;;;;27.23;4.70;;;0.90;99.90;;;;;;5044725;28;20508;-75
2022/01/30 07:14:38;;;;;;;27.55;4.03;;;0.80;99.90;;;;;;5046588;28;20409;-75
2022/01/30 07:17:05;;;;;;;28.05;4.75;;;0.70;99.90;;;;;;5040630;28;20064;-75
2022/01/30 07:19:33;;;;;;;25.20;4.72;;;1.10;99.90;;;;;;5026562;28;20049;-76
2022/01/30 07:22:01;;;;;;;25.02;3.90;;;0.70;99.90;;;;;;5016180;28;20049;-76
2022/01/30 07:24:29;;;;;;;29.40;4.22;;;0.80;99.90;;;;;;5043171;28;20052;-76
2022/01/30 07:26:57;;;;;;;25.58;4.63;;;0.70;99.90;;;;;;5024435;28;20072;-76
2022/01/30 07:29:25;;;;;;;32.42;4.80;;;0.60;99.90;;;;;;5036772;28;20045;-76
2022/01/30 07:31:52;;;;;;;25.02;4.20;;;0.60;99.90;;;;;;5040772;28;20037;-77
2022/01/30 07:34:21;;;;;;;32.15;4.65;;;0.50;99.90;;;;;;5041841;28;20049;-76
2022/01/30 07:36:50;;;;;;;31.92;4.57;;;0.50;99.90;;;;;;5042652;28;20053;-76
2022/01/30 07:39:18;;;;;;;31.30;4.55;;;0.50;99.90;;;;;;5041757;28;20044;-77
2022/01/30 07:41:45;;;;;;;26.45;5.07;;;0.40;99.90;;;;;;5028942;28;20527;-76
2022/01/30 07:44:16;;;;;;;29.98;4.45;;;0.40;99.90;;;;;;5047149;28;20296;-76
2022/01/30 07:46:44;;;;;;;27.45;4.97;;;0.40;99.90;;;;;;5035677;28;20037;-75
2022/01/30 07:49:12;;;;;;;32.63;4.78;;;0.40;99.90;;;;;;5045982;28;20409;-76
2022/01/30 07:51:40;;;;;;;38.65;5.32;;;0.30;99.90;;;;;;5042942;28;20049;-75
2022/01/30 07:54:07;;;;;;;36.53;5.28;;;0.50;99.90;;;;;;5044641;28;20742;-75
2022/01/30 07:56:35;;;;;;;32.00;4.90;;;0.30;99.90;;;;;;5031343;28;20057;-77
2022/01/30 07:59:06;;;;;;;31.98;4.45;;;0.80;99.90;;;;;;5050899;28;20075;-75
2022/01/30 08:01:34;;;;;;;31.33;4.97;;;0.30;99.90;;;;;;5050094;28;20088;-75
2022/01/30 08:04:03;;;;;;;30.38;4.38;;;0.30;99.90;;;;;;5043345;28;20060;-75
2022/01/30 08:06:31;;;;;;;30.83;4.93;;;0.40;99.90;;;;;;5047863;28;20060;-75
2022/01/30 08:08:59;;;;;;;32.72;5.03;;;0.40;99.90;;;;;;5063914;28;20055;-75
2022/01/30 08:11:27;;;;;;;24.73;4.80;;;0.50;99.90;;;;;;5046415;28;20049;-75
2022/01/30 08:13:55;;;;;;;27.52;5.88;;;0.50;99.90;;;;;;5049027;28;20052;-75
2022/01/30 08:16:27;;;;;;;32.50;5.85;;;0.40;99.90;;;;;;5049517;28;20413;-75
2022/01/30 08:18:55;;;;;;;29.95;5.55;;;0.50;99.90;;;;;;5048501;28;20432;-75
2022/01/30 08:21:23;;;;;;;30.88;5.53;;;0.50;99.90;;;;;;5050071;28;20053;-75
2022/01/30 08:23:51;;;;;;;25.23;4.85;;;0.50;99.90;;;;;;5049055;28;20536;-76
2022/01/30 08:26:19;;;;;;;28.25;5.20;;;0.60;99.90;;;;;;5026637;28;20120;-76
2022/01/30 08:28:46;;;;;;;25.80;5.05;;;0.80;99.90;;;;;;5028170;28;20068;-76
2022/01/30 08:31:15;;;;;;;26.02;4.63;;;0.60;99.90;;;;;;5034206;28;20049;-76
2022/01/30 08:33:43;;;;;;;28.88;4.40;;;0.70;99.90;;;;;;5031305;28;20045;-75
2022/01/30 08:36:10;;;;;;;29.70;4.70;;;0.70;99.90;;;;;;5034906;28;20266;-76
2022/01/30 08:38:38;;;;;;;27.77;5.10;;;0.70;99.90;;;;;;5039322;28;20049;-77
2022/01/30 08:41:06;;;;;;;30.40;4.15;;;1.00;99.90;;;;;;5035332;28;20080;-77
2022/01/30 08:43:34;;;;;;;25.75;4.57;;;0.90;99.90;;;;;;5030408;28;20053;-76
2022/01/30 08:46:02;;;;;;;;;;;0.90;99.90;;;;;;5044465;28;20054;-76
2022/01/30 08:48:32;;;;;;;38.10;4.38;;;1.00;99.90;;;;;;5030314;28;19921;-75
2022/01/30 08:51:00;;;;;;;30.70;4.78;;;1.20;99.90;;;;;;5030707;28;20064;-78
2022/01/30 08:53:29;;;;;;;28.42;4.97;;;1.10;99.90;;;;;;5029542;28;20057;-78
2022/01/30 08:55:57;;;;;;;36.67;5.65;;;1.20;99.90;;;;;;5030095;28;20045;-78
2022/01/30 08:58:25;;;;;;;38.20;5.85;;;1.30;99.90;;;;;;5029766;28;20086;-76
2022/01/30 09:00:53;;;;;;;33.47;5.38;;;1.60;99.90;;;;;;5034091;28;20049;-77
2022/01/30 09:03:21;;;;;;;27.83;5.05;;;1.70;99.90;;;;;;5050598;28;20061;-77
2022/01/30 09:05:49;;;;;;;32.90;5.25;;;1.60;99.90;;;;;;5065018;28;20052;-77
2022/01/30 09:08:17;;;;;;;30.30;5.13;;;1.60;99.90;;;;;;5050663;28;20477;-78
2022/01/30 09:10:45;;;;;;;28.25;5.60;;;1.80;99.90;;;;;;5053511;28;20049;-78
2022/01/30 09:13:12;;;;;;;32.80;5.72;;;1.80;99.90;;;;;;5034909;28;20044;-76
2022/01/30 09:15:42;;;;;;;32.45;5.53;;;2.10;99.90;;;;;;5054335;28;20058;-77
2022/01/30 09:18:11;;;;;;;29.13;5.88;;;2.10;99.90;;;;;;5052036;28;20045;-76
2022/01/30 09:20:42;;;;;;;32.67;5.10;;;2.10;99.90;;;;;;5053045;28;20056;-75
2022/01/30 09:23:11;;;;;;;28.42;5.40;;;2.20;99.90;;;;;;5040020;28;20055;-75
2022/01/30 09:25:46;;;;;;;36.38;5.82;;;2.30;99.90;;;;;;5051296;28;20425;-75
2022/01/30 09:28:15;;;;;;;30.92;5.43;;;2.40;99.90;;;;;;5049090;28;20052;-75
2022/01/30 09:30:44;;;;;;;32.90;5.70;;;2.60;99.90;;;;;;5033807;28;20037;-75
2022/01/30 09:33:11;;;;;;;33.38;5.35;;;2.70;99.90;;;;;;5049795;28;20053;-75
2022/01/30 09:35:39;;;;;;;27.90;5.38;;;2.80;99.90;;;;;;5051132;28;20424;-75
2022/01/30 09:38:07;;;;;;;25.30;4.97;;;2.90;99.90;;;;;;5049790;28;20500;-76
2022/01/30 09:40:35;;;;;;;34.10;4.72;;;3.10;99.90;;;;;;5029690;28;20054;-75
2022/01/30 09:43:02;;;;;;;33.15;4.95;;;3.20;99.90;;;;;;5044622;28;20053;-76
2022/01/30 09:45:30;;;;;;;25.65;4.80;;;3.30;99.90;;;;;;5046931;28;20045;-75
2022/01/30 09:47:59;;;;;;;23.30;4.38;;;3.50;99.90;;;;;;5047436;28;20056;-75
2022/01/30 09:50:28;;;;;;;31.52;4.47;;;3.60;99.90;;;;;;5048269;28;20055;-75
2022/01/30 09:52:56;;;;;;;30.38;4.55;;;3.80;99.90;;;;;;5046910;28;20041;-76
2022/01/30 09:55:24;;;;;;;27.58;5.10;;;3.90;99.90;;;;;;5062569;28;20057;-76
2022/01/30 09:57:53;;;;;;;28.80;4.68;;;4.00;99.90;;;;;;5045159;28;20052;-75
2022/01/30 10:00:21;;;;;;;35.78;4.55;;;4.10;99.90;;;;;;5047045;28;20523;-76
2022/01/30 10:02:49;;;;;;;;;;;4.20;99.90;;;;;;5048058;28;20053;-75
2022/01/30 10:05:18;;;;;;;35.80;5.03;;;4.30;99.90;;;;;;5047040;28;19939;-76
2022/01/30 10:07:54;;;;;;;29.05;4.53;;;4.40;99.90;;;;;;5025473;28;20061;-76
2022/01/30 10:10:25;;;;;;;28.25;4.55;;;4.50;99.90;;;;;;5056804;28;20082;-76
2022/01/30 10:13:11;;;;;;;30.08;4.10;;;4.50;99.90;;;;;;5044081;28;20045;-75
2022/01/30 10:15:48;;;;;;;27.65;4.80;;;4.60;99.90;;;;;;5036477;28;20045;-76
2022/01/30 10:18:17;;;;;;;29.17;5.03;;;4.70;99.90;;;;;;5046170;28;20053;-76
2022/01/30 10:20:45;;;;;;;27.13;5.03;;;4.80;99.90;;;;;;5043664;28;20290;-76
2022/01/30 10:23:13;;;;;;;26.42;5.28;;;4.90;99.90;;;;;;5038797;28;20058;-75
2022/01/30 10:25:47;;;;;;;28.73;4.80;;;5.10;99.90;;;;;;5046549;28;20052;-74
2022/01/30 10:28:16;;;;;;;29.15;4.65;;;5.50;99.90;;;;;;5044859;28;20045;-75
2022/01/30 10:30:46;;;;;;;26.60;4.60;;;5.80;99.90;;;;;;5046003;28;20056;-74
2022/01/30 10:33:41;;;;;;;22.02;4.88;;;6.40;99.90;;;;;;5046110;28;20053;-73
2022/01/30 10:36:10;;;;;;;30.00;5.18;;;7.30;99.90;;;;;;5046720;28;20067;-75
2022/01/30 10:38:40;;;;;;;30.85;4.90;;;8.10;99.90;;;;;;5044519;28;20037;-73
2022/01/30 10:41:17;;;;;;;35.05;5.78;;;8.90;99.90;;;;;;5045797;28;20053;-74
2022/01/30 10:44:04;;;;;;;26.30;5.30;;;9.70;99.90;;;;;;5041066;28;20474;-74
2022/01/30 10:46:38;;;;;;;25.17;5.18;;;10.50;99.90;;;;;;5045950;28;20060;-76
2022/01/30 10:49:18;;;;;;;27.10;5.28;;;11.00;99.90;;;;;;5046219;28;20758;-76
2022/01/30 10:51:53;;;;;;;24.65;5.35;;;11.50;99.90;;;;;;5042732;28;20057;-77
2022/01/30 10:54:21;;;;;;;22.77;4.93;;;12.00;99.90;;;;;;5042487;28;20059;-76
2022/01/30 10:57:01;;;;;;;22.25;5.55;;;12.40;99.90;;;;;;5043305;28;20048;-76
2022/01/30 10:59:29;;;;;;;25.13;4.85;;;12.70;99.90;;;;;;5037614;28;20044;-82
2022/01/30 11:02:11;;;;;;;24.70;5.40;;;13.00;99.90;;;;;;5044402;28;20374;-78
2022/01/30 11:04:39;;;;;;;28.10;5.40;;;13.40;99.90;;;;;;5017755;28;20056;-81
2022/01/30 11:07:07;;;;;;;23.98;5.32;;;13.80;99.90;;;;;;5025023;28;20057;-86
2022/01/30 11:09:42;;;;;;;26.73;5.95;;;14.10;99.90;;;;;;5037483;28;20053;-82
2022/01/30 11:12:14;;;;;;;25.55;5.80;;;14.30;99.90;;;;;;5038045;28;20040;-78
2022/01/30 11:17:21;;;;;;;22.50;5.40;;;14.80;99.90;;;;;;5043976;28;20120;-84
2022/01/30 11:19:53;;;;;;;23.48;5.30;;;15.00;95.90;;;;;;5047427;28;20048;-80
2022/01/30 11:22:23;;;;;;;18.85;5.00;;;15.20;98.70;;;;;;5042262;28;20046;-79
2022/01/30 11:25:01;;;;;;;23.77;5.63;;;15.40;98.30;;;;;;5047684;28;20120;-85
2022/01/30 11:27:31;;;;;;;25.08;5.88;;;15.70;97.00;;;;;;5042607;28;20053;-79
2022/01/30 11:29:59;;;;;;;25.52;6.50;;;15.80;96.60;;;;;;5043297;28;20060;-81
2022/01/30 11:32:27;;;;;;;;;;;15.90;96.00;;;;;;5049742;28;20512;-81
2022/01/30 11:34:56;;;;;;;28.40;7.85;;;15.90;92.30;;;;;;5030862;28;19925;-81
2022/01/30 11:37:30;;;;;;;27.02;6.25;;;15.90;95.50;;;;;;5051827;28;20056;-80
2022/01/30 11:40:00;;;;;;;20.02;5.38;;;15.80;94.60;;;;;;5047907;28;20071;-80
2022/01/30 11:42:40;;;;;;;20.48;5.50;;;15.70;94.90;;;;;;5047692;28;20059;-79
2022/01/30 11:45:07;;;;;;;22.52;6.15;;;15.80;93.40;;;;;;5047697;28;20052;-80
2022/01/30 11:47:58;;;;;;;27.98;8.13;;;15.90;94.40;;;;;;5046278;28;20041;-80
2022/01/30 11:50:29;;;;;;;21.60;4.35;;;16.10;93.90;;;;;;5048498;28;20049;-78
2022/01/30 11:53:01;;;;;;;25.40;5.95;;;16.30;93.20;;;;;;5050505;28;20049;-81
2022/01/30 11:55:56;;;;;;;21.42;6.10;;;16.40;92.10;;;;;;5048977;28;20071;-80
2022/01/30 11:58:30;;;;;;;25.50;5.82;;;16.40;90.70;;;;;;5050349;28;20044;-80
2022/01/30 12:01:02;;;;;;;19.77;4.90;;;16.50;91.70;;;;;;5048222;28;20056;-80
2022/01/30 12:03:35;;;;;;;16.80;4.88;;;16.50;91.60;;;;;;5049068;28;20045;-80
2022/01/30 12:06:40;;;;;;;19.25;6.00;;;16.50;91.10;;;;;;5048025;28;20071;-79
2022/01/30 12:09:26;;;;;;;21.85;5.25;;;16.60;84.70;;;;;;5024067;28;20041;-79
2022/01/30 12:11:56;;;;;;;23.80;4.88;;;16.60;87.20;;;;;;5047713;28;20048;-78
2022/01/30 12:14:23;;;;;;;20.55;4.97;;;16.60;89.30;;;;;;5051627;28;20037;-80
2022/01/30 12:16:56;;;;;;;18.13;4.68;;;16.70;89.00;;;;;;5047705;28;20041;-83
2022/01/30 12:19:39;;;;;;;21.35;4.43;;;17.00;87.60;;;;;;5046428;28;20056;-81
2022/01/30 12:22:16;;;;;;;22.45;4.68;;;17.20;80.10;;;;;;5051122;28;20047;-79
2022/01/30 12:24:45;;;;;;;18.83;4.97;;;17.30;82.20;;;;;;5048463;28;20072;-80
2022/01/30 12:27:14;;;;;;;22.83;5.72;;;17.50;83.50;;;;;;5025626;28;20049;-80
2022/01/30 12:29:46;;;;;;;22.65;5.55;;;17.70;84.40;;;;;;5029057;28;20064;-81
2022/01/30 12:32:23;;;;;;;22.50;4.90;;;18.00;83.80;;;;;;5030850;28;20052;-81
2022/01/30 12:34:54;;;;;;;17.38;4.63;;;18.20;78.40;;;;;;5033131;28;20073;-80
2022/01/30 12:37:29;;;;;;;17.95;4.47;;;18.40;79.30;;;;;;5034636;28;20049;-81
2022/01/30 12:40:00;;;;;;;16.92;3.80;;;18.40;77.50;;;;;;5043087;28;20056;-82
2022/01/30 12:42:32;;;;;;;15.77;4.22;;;18.40;78.10;;;;;;5045475;28;20038;-81
2022/01/30 12:45:03;;;;;;;23.10;5.38;;;18.40;77.30;;;;;;5034656;28;20056;-82
2022/01/30 12:47:56;;;;;;;14.77;3.88;;;18.50;76.70;;;;;;5032673;28;20049;-80
2022/01/30 12:50:28;;;;;;;15.90;3.67;;;18.60;72.50;;;;;;5041848;28;20516;-82
2022/01/30 12:52:56;;;;;;;17.45;4.90;;;18.60;73.40;;;;;;5051327;28;20049;-80
2022/01/30 12:55:24;;;;;;;14.85;3.65;;;18.60;72.30;;;;;;5049384;28;20136;-82
2022/01/30 12:57:54;;;;;;;9.65;2.90;;;18.60;68.90;;;;;;5050395;28;20052;-83
2022/01/30 13:00:22;;;;;;;9.73;2.60;;;18.40;69.40;;;;;;5049740;28;20049;-80
2022/01/30 13:02:59;;;;;;;11.65;2.92;;;18.20;68.10;;;;;;5049784;28;20053;-81
2022/01/30 13:05:29;;;;;;;11.38;2.90;;;18.00;66.80;;;;;;5048576;28;20037;-82
2022/01/30 13:07:59;;;;;;;14.48;3.67;;;17.80;66.60;;;;;;5048960;28;20056;-82
2022/01/30 13:10:27;;;;;;;10.90;2.85;;;17.50;66.20;;;;;;5048926;28;20053;-80
2022/01/30 13:12:58;;;;;;;9.35;2.10;;;17.30;64.10;;;;;;5050433;28;20060;-84
2022/01/30 13:15:27;;;;;;;10.85;2.50;;;17.10;65.60;;;;;;5050668;28;20049;-81
2022/01/30 13:17:58;;;;;;;10.95;2.80;;;16.60;67.20;;;;;;5050701;28;20052;-83
2022/01/30 13:20:28;;;;;;;12.73;2.55;;;16.50;67.80;;;;;;5049067;28;20052;-85
2022/01/30 13:22:56;;;;;;;10.30;2.67;;;16.20;66.40;;;;;;5049818;28;20057;-85
2022/01/30 13:25:24;;;;;;;13.05;3.20;;;15.90;68.30;;;;;;5032399;28;20057;-79
2022/01/30 13:27:58;;;;;;;11.27;2.50;;;15.80;68.70;;;;;;5048878;28;20057;-80
2022/01/30 13:30:32;;;;;;;15.80;3.10;;;15.70;69.00;;;;;;5033442;28;20060;-82
2022/01/30 13:32:59;;;;;;;14.32;2.60;;;15.50;69.00;;;;;;5049767;28;20075;-78
2022/01/30 13:35:31;;;;;;;16.55;2.88;;;15.20;69.60;;;;;;5050207;28;20781;-82
2022/01/30 13:38:02;;;;;;;14.63;3.28;;;15.00;69.40;;;;;;5048481;28;20060;-80
2022/01/30 13:40:41;;;;;;;18.02;3.35;;;14.80;70.20;;;;;;5015064;28;20056;-81
2022/01/30 13:43:18;;;;;;;14.38;3.00;;;14.70;71.20;;;;;;5039240;28;20048;-81
2022/01/30 13:48:19;;;;;;;15.32;3.25;;;14.50;71.50;;;;;;5046561;28;20060;-83
2022/01/30 13:50:52;;;;;;;11.60;3.10;;;14.40;70.30;;;;;;5030795;28;20086;-82
2022/01/30 13:53:20;;;;;;;14.60;3.00;;;14.20;70.90;;;;;;5021618;28;20075;-80
2022/01/30 13:56:05;;;;;;;15.23;3.03;;;14.20;71.80;;;;;;5050137;28;20042;-79
2022/01/30 13:58:47;;;;;;;22.08;4.03;;;14.40;72.20;;;;;;5065136;28;20064;-78
2022/01/30 14:01:30;;;;;;;14.82;3.22;;;14.50;72.20;;;;;;5050234;28;20041;-80
2022/01/30 14:04:11;;;;;;;15.23;3.40;;;14.80;72.30;;;;;;5044417;28;20048;-84
2022/01/30 14:06:42;;;;;;;19.70;4.03;;;15.00;70.60;;;;;;5045149;28;20053;-81
2022/01/30 14:09:13;;;;;;;13.15;3.42;;;15.20;71.90;;;;;;5039712;28;20109;-81
2022/01/30 14:11:44;;;;;;;18.95;3.80;;;15.30;71.70;;;;;;5039442;28;20880;-78
2022/01/30 14:14:17;;;;;;;23.00;4.18;;;15.50;72.00;;;;;;5045261;28;20037;-77
2022/01/30 14:16:51;;;;;;;18.33;3.70;;;15.60;71.30;;;;;;5044436;28;20505;-82